Flight Track Log - Related Links

Times and Time Zones

All times are in EDT time to prevent confusion due to time zone crossing. See the CSZ9977 flight status page for this flight to view local times or setup timezone preferences in your user account.

Time Position Orientation Groundspeed Altitude Reporting Facility
EDT Latitude Longitude Course Direction KTS MPH feet Rate Location/Type
Thu 12:09:00 AM 30.5065 110.6644 317° Northwest  Level Estimated
Thu 12:10:00 AM 30.5781 110.5826 316° Northwest  Level Estimated
Thu 12:11:00 AM 30.6497 110.5007 315° West  Level Estimated
Thu 12:12:00 AM 30.7212 110.4187 315° West  Level Estimated
Thu 12:13:00 AM 30.7927 110.3366 315° West  Level Estimated
Thu 12:14:00 AM 30.8641 110.2543 315° West  Level Estimated
Thu 12:15:00 AM 30.9354 110.1720 315° West  Level Estimated
Thu 12:16:00 AM 31.0067 110.0895 315° West  Level Estimated
Thu 12:17:00 AM 31.0780 110.0069 315° West  Level Estimated
Thu 12:18:00 AM 31.1492 109.9241 315° West  Level Estimated
Thu 12:19:00 AM 31.2203 109.8412 315° West  Level Estimated
Thu 12:20:00 AM 31.2914 109.7583 315° West  Level Estimated
Thu 12:21:00 AM 31.3624 109.6751 315° West  Level Estimated
Thu 12:22:00 AM 31.4334 109.5919 315° West  Level Estimated
Thu 12:23:00 AM 31.5044 109.5085 315° West  Level Estimated
Thu 12:24:00 AM 31.5752 109.4250 315° West  Level Estimated
Thu 12:25:00 AM 31.6460 109.3414 315° West  Level Estimated
Thu 12:26:00 AM 31.7168 109.2577 315° West  Level Estimated
Thu 12:27:00 AM 31.7875 109.1738 315° West  Level Estimated
Thu 12:28:00 AM 31.8582 109.0898 315° West  Level Estimated
Thu 12:29:00 AM 31.9288 109.0056 315° West  Level Estimated
Thu 12:30:00 AM 31.9993 108.9214 315° West  Level Estimated
Thu 12:31:00 AM 32.0698 108.8370 315° West  Level Estimated
Thu 12:32:00 AM 32.1403 108.7525 315° West  Level Estimated
Thu 12:33:00 AM 32.2106 108.6678 315° West  Level Estimated
Thu 12:34:00 AM 32.2810 108.5830 314° West  Level Estimated
Thu 12:35:00 AM 32.3512 108.4981 314° West  Level Estimated
Thu 12:36:00 AM 32.4214 108.4130 314° West  Level Estimated
Thu 12:37:00 AM 32.4916 108.3279 314° West  Level Estimated
Thu 12:38:00 AM 32.5617 108.2426 314° West  Level Estimated
Thu 12:39:00 AM 32.6317 108.1571 314° West  Level Estimated
Thu 12:40:00 AM 32.7017 108.0715 314° West  Level Estimated
Thu 12:41:00 AM 32.7716 107.9858 314° West  Level Estimated
Thu 12:42:00 AM 32.8415 107.8999 314° West  Level Estimated
Thu 12:43:00 AM 32.9113 107.8140 314° West  Level Estimated
Thu 12:44:00 AM 32.9810 107.7278 314° West  Level Estimated
Thu 12:45:00 AM 33.0507 107.6416 314° West  Level Estimated
Thu 12:46:00 AM 33.1203 107.5552 314° West  Level Estimated
Thu 12:47:00 AM 33.1899 107.4687 314° West  Level Estimated
Thu 12:48:00 AM 33.2594 107.3820 314° West  Level Estimated
Thu 12:49:00 AM 33.3288 107.2952 314° West  Level Estimated
Thu 12:50:00 AM 33.3982 107.2082 314° West  Level Estimated
Thu 12:51:00 AM 33.4675 107.1211 314° West  Level Estimated
Thu 12:52:00 AM 33.5368 107.0339 314° West  Level Estimated
Thu 12:53:00 AM 33.6060 106.9466 314° West  Level Estimated
Thu 12:54:00 AM 33.6752 106.8591 314° West  Level Estimated
Thu 12:55:00 AM 33.7442 106.7714 313° West  Level Estimated
Thu 12:56:00 AM 33.8133 106.6836 313° West  Level Estimated
Thu 12:57:00 AM 33.8822 106.5957 313° West  Level Estimated
Thu 12:58:00 AM 33.9511 106.5076 313° West  Level Estimated
Thu 12:59:00 AM 34.0199 106.4194 313° West  Level Estimated
Thu 01:00:00 AM 34.0887 106.3311 313° West  Level Estimated
Thu 01:01:00 AM 34.1574 106.2426 313° West  Level Estimated
Thu 01:02:00 AM 34.2260 106.1539 313° West  Level Estimated
Thu 01:03:00 AM 34.2946 106.0651 313° West  Level Estimated
Thu 01:04:00 AM 34.3631 105.9762 313° West  Level Estimated
Thu 01:05:00 AM 34.4316 105.8871 313° West  Level Estimated
Thu 01:06:00 AM 34.4999 105.7979 313° West  Level Estimated
Thu 01:07:00 AM 34.5683 105.7085 313° West  Level Estimated
Thu 01:08:00 AM 34.6365 105.6190 313° West  Level Estimated
Thu 01:09:00 AM 34.7047 105.5293 313° West  Level Estimated
Thu 01:10:00 AM 34.7728 105.4395 313° West  Level Estimated
Thu 01:11:00 AM 34.8409 105.3496 313° West  Level Estimated
Thu 01:12:00 AM 34.9089 105.2595 313° West  Level Estimated
Thu 01:13:00 AM 34.9768 105.1692 313° West  Level Estimated
Thu 01:14:00 AM 35.0446 105.0788 313° West  Level Estimated
Thu 01:15:00 AM 35.1124 104.9882 312° West  Level Estimated
Thu 01:16:00 AM 35.1801 104.8975 312° West  Level Estimated
Thu 01:17:00 AM 35.2478 104.8067 312° West  Level Estimated
Thu 01:18:00 AM 35.3154 104.7156 312° West  Level Estimated
Thu 01:19:00 AM 35.3829 104.6245 312° West  Level Estimated
Thu 01:20:00 AM 35.4503 104.5332 312° West  Level Estimated
Thu 01:21:00 AM 35.5177 104.4417 312° West  Level Estimated
Thu 01:22:00 AM 35.5850 104.3501 312° West  Level Estimated
Thu 01:23:00 AM 35.6523 104.2583 312° West  Level Estimated
Thu 01:24:00 AM 35.7194 104.1664 312° West  Level Estimated
Thu 01:25:00 AM 35.7865 104.0743 312° West  Level Estimated
Thu 01:26:00 AM 35.8535 103.9820 312° West  Level Estimated
Thu 01:27:00 AM 35.9205 103.8896 312° West  Level Estimated
Thu 01:28:00 AM 35.9874 103.7971 312° West  Level Estimated
Thu 01:29:00 AM 36.0542 103.7044 312° West  Level Estimated
Thu 01:30:00 AM 36.1170 103.6170 312° West  Level Estimated
Thu 01:31:00 AM 36.1170 103.6170 North  Level Estimated
Thu 01:32:00 AM 36.1170 103.6170 North  Level Estimated
Thu 01:33:00 AM 36.1170 103.6170 North  Level Estimated
Thu 01:34:00 AM 36.1170 103.6170 North  Level Estimated
Thu 01:35:00 AM 36.1170 103.6170 North  Level Estimated
Thu 01:36:00 AM 36.1170 103.6170 North  Level Estimated
Thu 01:37:00 AM 36.1170 103.6170 North  Level Estimated
Thu 01:38:00 AM 36.1170 103.6170 North  Level Estimated
Thu 01:39:00 AM 36.1170 103.6170 North  Level Estimated
Thu 01:40:00 AM 36.1170 103.6170 North  Level Estimated
Thu 01:41:00 AM 36.1170 103.6170 North  Level Estimated
Thu 01:42:00 AM 36.1170 103.6170 North  Level Estimated
Thu 01:43:00 AM 36.1170 103.6170 North  Level Estimated
Thu 01:44:00 AM 36.1170 103.6170 North  Level Estimated
Thu 01:45:00 AM 36.1170 103.6170 North  Level Estimated
Thu 01:46:00 AM 36.1170 103.6170 North  Level Estimated

Login

Don't have an account? Register now (free) for customized features, flight alerts, and more!